Maria Juana, Argentina
Current Conditions -  °F | °C
As of 7:00 AM on Saturday 20 Dec 2014 (Local Time) from SAAR Reporting Station
Thunderstorm Thunderstorm  
Wind Chill: 64°   Ceiling: 800
Heat Index: 64°   Visibility: 5mi
Dew Point: 64°   Wind: 15mph
Humidity: 100%   Direction: 140°SE
Pressure: 29.62"   Gusts: NA
Location:  31.68°S, 61.73°W
Report Text: SAAR 201000Z 14013KT 8000 -TSRA BKN008OVC045 FEW050CB 18/18 Q1003
Loading
Personal Weather Stations






























Interactive Weather Map New forecast layout! Learn more

10-Day Weather Forecast

Advertisements
Track Severe Weather on mobile